Time;durP1;ratioP1;P1;durP2;ratioP2;P2;SDS_P1;SDS_P2;PMS_P1;PMS_P2;Temp;Humidity;BMP_temperature;BMP_pressure;BME280_temperature;BME280_humidity;BME280_pressure;Samples;Min_cycle;Max_cycle;Signal;HPM_P1;HPM_P2
2022/01/23 00:02:07;;;;;;;1999.90;999.90;;;;;;;;;;5030511;28;20205;-68
2022/01/23 00:04:52;;;;;;;1999.90;999.90;;;;;;;;;;5030542;28;20233;-69
2022/01/23 00:07:40;;;;;;;1999.90;999.90;;;;;;;;;;5039566;28;20439;-68
2022/01/23 00:10:24;;;;;;;1999.90;999.90;;;;;;;;;;5041037;28;20214;-68
2022/01/23 00:13:14;;;;;;;1999.90;999.90;;;;;;;;;;5040877;28;20207;-68
2022/01/23 00:19:01;;;;;;;1999.90;999.90;;;;;;;;;;5033836;28;20254;-68
2022/01/23 00:21:47;;;;;;;1999.90;999.90;;;;;;;;;;5041493;28;20215;-68
2022/01/23 00:30:45;;;;;;;1999.90;999.90;;;;;;;;;;5045700;28;20198;-69
2022/01/23 00:33:32;;;;;;;1999.90;999.90;;;;;;;;;;5041478;28;20773;-69
2022/01/23 00:36:17;;;;;;;1999.90;999.90;;;;;;;;;;5012422;28;20345;-68
2022/01/23 00:39:02;;;;;;;1999.90;999.90;;;;;;;;;;5039042;28;20216;-69
2022/01/23 00:41:49;;;;;;;1999.90;999.90;;;;;;;;;;5031176;28;20237;-68
2022/01/23 00:44:36;;;;;;;1999.90;999.90;;;;;;;;;;5043695;28;20212;-69
2022/01/23 00:47:21;;;;;;;1999.90;999.90;;;;;;;;;;5047154;28;20239;-68
2022/01/23 00:50:06;;;;;;;1999.90;999.90;;;;;;;;;;5043818;28;20211;-69
2022/01/23 00:52:52;;;;;;;1999.90;999.90;;;;;;;;;;5036932;28;20210;-69
2022/01/23 00:55:37;;;;;;;1999.90;999.90;;;;;;;;;;5043821;28;20225;-68
2022/01/23 00:58:23;;;;;;;1999.90;999.90;;;;;;;;;;5042325;28;20957;-68
2022/01/23 01:01:08;;;;;;;1999.90;999.90;;;;;;;;;;5051709;28;20769;-69
2022/01/23 01:03:53;;;;;;;1999.90;999.90;;;;;;;;;;5038791;28;20214;-68
2022/01/23 01:06:38;;;;;;;1999.90;999.90;;;;;;;;;;5030451;28;20251;-69
2022/01/23 01:09:23;;;;;;;1999.90;999.90;;;;;;;;;;5024558;28;20276;-68
2022/01/23 01:12:16;;;;;;;1999.90;999.90;;;;;;;;;;5029961;28;20977;-68
2022/01/23 01:15:28;;;;;;;1999.90;999.90;;;;;;;;;;5030596;28;20201;-69
2022/01/23 01:30:37;;;;;;;1999.90;999.90;;;;;;;;;;5026592;28;20306;-68
2022/01/23 01:33:31;;;;;;;1999.90;999.90;;;;;;;;;;5031345;28;20291;-68
2022/01/23 01:36:25;;;;;;;1999.90;999.90;;;;;;;;;;5014753;28;20470;-69
2022/01/23 01:39:10;;;;;;;1999.90;999.90;;;;;;;;;;5025184;28;20251;-68
2022/01/23 01:41:55;;;;;;;1999.90;999.90;;;;;;;;;;5035061;28;20270;-69
2022/01/23 01:44:40;;;;;;;1999.90;999.90;;;;;;;;;;5035581;28;20220;-68
2022/01/23 01:47:26;;;;;;;1999.90;999.90;;;;;;;;;;5034403;28;20306;-68
2022/01/23 01:50:11;;;;;;;1999.90;999.90;;;;;;;;;;5015887;28;20681;-68
2022/01/23 01:52:56;;;;;;;1999.90;999.90;;;;;;;;;;5034046;28;20228;-68
2022/01/23 01:55:46;;;;;;;1999.90;999.90;;;;;;;;;;5034322;28;20224;-68
2022/01/23 01:58:57;;;;;;;1999.90;999.90;;;;;;;;;;5029600;28;20228;-68
2022/01/23 02:10:52;;;;;;;1999.90;999.90;;;;;;;;;;5050534;28;20232;-69
2022/01/23 02:13:42;;;;;;;1999.90;999.90;;;;;;;;;;5046756;28;20776;-69
2022/01/23 02:53:31;;;;;;;1999.90;999.90;;;;;;;;;;5034850;28;20195;-68
2022/01/23 02:56:21;;;;;;;1999.90;999.90;;;;;;;;;;5036293;28;20797;-68
2022/01/23 02:59:18;;;;;;;1999.90;999.90;;;;;;;;;;5045375;28;20209;-68
2022/01/23 03:02:10;;;;;;;1999.90;999.90;;;;;;;;;;5044309;28;20212;-69
2022/01/23 03:05:00;;;;;;;1999.90;999.90;;;;;;;;;;5046098;28;20209;-68
2022/01/23 03:08:01;;;;;;;1999.90;999.90;;;;;;;;;;5040493;28;20414;-68
2022/01/23 03:10:59;;;;;;;1999.90;999.90;;;;;;;;;;5046953;28;20217;-68
2022/01/23 03:13:51;;;;;;;1999.90;999.90;;;;;;;;;;5042255;28;20598;-68
2022/01/23 03:26:09;;;;;;;1999.90;999.90;;;;;;;;;;5016293;28;20287;-68
2022/01/23 03:32:18;;;;;;;1999.90;999.90;;;;;;;;;;5040083;28;20225;-68
2022/01/23 03:35:04;;;;;;;1999.90;999.90;;;;;;;;;;5041564;28;20220;-68
2022/01/23 03:37:50;;;;;;;1999.90;999.90;;;;;;;;;;5041784;28;20231;-68
2022/01/23 03:40:35;;;;;;;1999.90;999.90;;;;;;;;;;5050818;28;20201;-69
2022/01/23 03:43:27;;;;;;;1999.90;999.90;;;;;;;;;;5035072;28;20212;-68
2022/01/23 03:46:35;;;;;;;1999.90;999.90;;;;;;;;;;5035944;28;20224;-68
2022/01/23 03:49:32;;;;;;;1999.90;999.90;;;;;;;;;;5039776;28;20748;-68
2022/01/23 03:52:17;;;;;;;1999.90;999.90;;;;;;;;;;5044182;28;20200;-68
2022/01/23 03:55:04;;;;;;;1999.90;999.90;;;;;;;;;;5052288;28;20216;-68
2022/01/23 03:57:49;;;;;;;1999.90;999.90;;;;;;;;;;5031002;28;20607;-67
2022/01/23 04:00:34;;;;;;;1999.90;999.90;;;;;;;;;;5038032;28;20215;-68
2022/01/23 04:03:22;;;;;;;1999.90;999.90;;;;;;;;;;5033554;28;20951;-68
2022/01/23 04:06:06;;;;;;;1999.90;999.90;;;;;;;;;;5040062;28;20213;-68
2022/01/23 04:08:51;;;;;;;1999.90;999.90;;;;;;;;;;5029738;28;20457;-69
2022/01/23 04:11:36;;;;;;;1999.90;999.90;;;;;;;;;;5032357;28;20211;-68
2022/01/23 04:14:23;;;;;;;1999.90;999.90;;;;;;;;;;5026206;28;20343;-68
2022/01/23 04:20:30;;;;;;;1999.90;999.90;;;;;;;;;;5014810;28;20259;-68
2022/01/23 04:32:47;;;;;;;1999.90;999.90;;;;;;;;;;5031936;28;20717;-69
2022/01/23 04:59:34;;;;;;;1999.90;999.90;;;;;;;;;;5032280;28;20206;-68
2022/01/23 05:00:18;;;;;;;1999.90;999.90;;;;;;;;;;5012306;28;20205;-68
2022/01/23 05:06:09;;;;;;;1999.90;999.90;;;;;;;;;;5012303;28;20237;-68
2022/01/23 05:08:54;;;;;;;1999.90;999.90;;;;;;;;;;5017634;28;20689;-68
2022/01/23 05:11:47;;;;;;;1999.90;999.90;;;;;;;;;;5031959;28;20837;-68
2022/01/23 05:14:33;;;;;;;1999.90;999.90;;;;;;;;;;5031833;28;20670;-68
2022/01/23 05:17:18;;;;;;;1999.90;999.90;;;;;;;;;;5031628;28;20311;-68
2022/01/23 05:20:04;;;;;;;1999.90;999.90;;;;;;;;;;5030892;28;20293;-68
2022/01/23 05:22:53;;;;;;;1999.90;999.90;;;;;;;;;;5032085;28;20209;-68
2022/01/23 05:25:39;;;;;;;1999.90;999.90;;;;;;;;;;5031499;28;20780;-68
2022/01/23 05:28:24;;;;;;;1999.90;999.90;;;;;;;;;;5024294;28;20229;-68
2022/01/23 05:31:11;;;;;;;1999.90;999.90;;;;;;;;;;5023023;28;20217;-68
2022/01/23 05:33:56;;;;;;;1999.90;999.90;;;;;;;;;;5031796;28;20208;-68
2022/01/23 05:36:40;;;;;;;1999.90;999.90;;;;;;;;;;5031717;28;20229;-68
2022/01/23 05:39:31;;;;;;;1999.90;999.90;;;;;;;;;;5030227;28;20494;-68
2022/01/23 05:42:17;;;;;;;1999.90;999.90;;;;;;;;;;5029200;28;20205;-68
2022/01/23 05:45:01;;;;;;;1999.90;999.90;;;;;;;;;;5028235;28;20204;-68
2022/01/23 05:47:46;;;;;;;1999.90;999.90;;;;;;;;;;5029159;28;20788;-68
2022/01/23 05:50:31;;;;;;;1999.90;999.90;;;;;;;;;;5027714;28;20217;-68
2022/01/23 05:53:16;;;;;;;1999.90;999.90;;;;;;;;;;5022763;28;20234;-66
2022/01/23 05:56:03;;;;;;;1999.90;999.90;;;;;;;;;;5031269;28;20213;-68
2022/01/23 05:58:48;;;;;;;1999.90;999.90;;;;;;;;;;5028253;28;20208;-67
2022/01/23 06:01:33;;;;;;;1999.90;999.90;;;;;;;;;;5028212;28;20314;-68
2022/01/23 06:04:19;;;;;;;1999.90;999.90;;;;;;;;;;5022299;28;20549;-68
2022/01/23 06:07:04;;;;;;;1999.90;999.90;;;;;;;;;;5030919;28;20279;-68
2022/01/23 06:09:50;;;;;;;1999.90;999.90;;;;;;;;;;5030948;28;20641;-68
2022/01/23 06:12:37;;;;;;;1999.90;999.90;;;;;;;;;;5031774;28;20685;-68
2022/01/23 06:15:22;;;;;;;1999.90;999.90;;;;;;;;;;5031359;28;20193;-68
2022/01/23 06:18:06;;;;;;;1999.90;999.90;;;;;;;;;;5031071;28;20315;-68
2022/01/23 06:20:52;;;;;;;1999.90;999.90;;;;;;;;;;5031595;28;20207;-68
2022/01/23 06:23:37;;;;;;;1999.90;999.90;;;;;;;;;;5027521;28;20234;-68
2022/01/23 06:26:22;;;;;;;1999.90;999.90;;;;;;;;;;5013384;28;20715;-67
2022/01/23 06:29:09;;;;;;;1999.90;999.90;;;;;;;;;;5034001;28;20209;-68
2022/01/23 06:31:55;;;;;;;1999.90;999.90;;;;;;;;;;5034927;28;20232;-68
2022/01/23 06:34:40;;;;;;;1999.90;999.90;;;;;;;;;;5034894;28;20352;-70
2022/01/23 06:37:25;;;;;;;1999.90;999.90;;;;;;;;;;5034594;28;20220;-70
2022/01/23 06:40:10;;;;;;;1999.90;999.90;;;;;;;;;;5025508;28;20757;-70
2022/01/23 06:42:55;;;;;;;1999.90;999.90;;;;;;;;;;5018849;28;20248;-68
2022/01/23 06:45:42;;;;;;;1999.90;999.90;;;;;;;;;;5014994;28;20215;-70
2022/01/23 06:48:27;;;;;;;1999.90;999.90;;;;;;;;;;5024913;28;20243;-68
2022/01/23 06:51:11;;;;;;;1999.90;999.90;;;;;;;;;;5025660;28;20280;-69
2022/01/23 06:53:56;;;;;;;1999.90;999.90;;;;;;;;;;5034215;28;20706;-68
2022/01/23 06:56:41;;;;;;;1999.90;999.90;;;;;;;;;;5028912;28;20782;-67
2022/01/23 06:59:26;;;;;;;1999.90;999.90;;;;;;;;;;5029530;28;20319;-68
2022/01/23 07:02:12;;;;;;;1999.90;999.90;;;;;;;;;;5029367;28;20250;-68
2022/01/23 07:04:57;;;;;;;1999.90;999.90;;;;;;;;;;5034231;28;20210;-68
2022/01/23 07:07:42;;;;;;;1999.90;999.90;;;;;;;;;;5032335;28;20433;-68
2022/01/23 07:10:27;;;;;;;1999.90;999.90;;;;;;;;;;5034076;28;20207;-68
2022/01/23 07:13:12;;;;;;;1999.90;999.90;;;;;;;;;;5028514;28;20702;-68
2022/01/23 07:15:57;;;;;;;1999.90;999.90;;;;;;;;;;5033432;28;20302;-68
2022/01/23 07:18:43;;;;;;;1999.90;999.90;;;;;;;;;;5033619;28;20341;-68
2022/01/23 07:21:28;;;;;;;1999.90;999.90;;;;;;;;;;5033890;28;20589;-68
2022/01/23 07:24:13;;;;;;;1999.90;999.90;;;;;;;;;;5019236;28;20205;-68
2022/01/23 07:26:59;;;;;;;1999.90;999.90;;;;;;;;;;5033721;28;20358;-68
2022/01/23 07:29:46;;;;;;;1999.90;999.90;;;;;;;;;;5033336;28;20335;-68
2022/01/23 07:32:31;;;;;;;1999.90;999.90;;;;;;;;;;5033523;28;20283;-68
2022/01/23 07:35:17;;;;;;;1999.90;999.90;;;;;;;;;;5032360;28;20482;-67
2022/01/23 07:38:02;;;;;;;1999.90;999.90;;;;;;;;;;5016649;28;20236;-68
2022/01/23 07:40:48;;;;;;;1999.90;999.90;;;;;;;;;;5032937;28;20211;-69
2022/01/23 07:43:33;;;;;;;1999.90;999.90;;;;;;;;;;5033098;28;20324;-69
2022/01/23 07:46:19;;;;;;;1999.90;999.90;;;;;;;;;;5019222;28;20222;-68
2022/01/23 07:49:04;;;;;;;1999.90;999.90;;;;;;;;;;5032955;28;20219;-69
2022/01/23 07:51:50;;;;;;;1999.90;999.90;;;;;;;;;;5031624;28;20220;-69
2022/01/23 07:54:36;;;;;;;1999.90;999.90;;;;;;;;;;5033208;28;20226;-68
2022/01/23 07:57:20;;;;;;;1999.90;999.90;;;;;;;;;;5033140;28;20631;-68
2022/01/23 08:00:06;;;;;;;1999.90;999.90;;;;;;;;;;5013252;28;20212;-68
2022/01/23 08:02:51;;;;;;;1999.90;999.90;;;;;;;;;;5019311;28;20663;-68
2022/01/23 08:05:37;;;;;;;1999.90;999.90;;;;;;;;;;5032630;28;20598;-69
2022/01/23 08:08:24;;;;;;;1999.90;999.90;;;;;;;;;;5026018;28;20254;-70
2022/01/23 08:11:08;;;;;;;1999.90;999.90;;;;;;;;;;5026027;28;20702;-70
2022/01/23 08:13:53;;;;;;;1999.90;999.90;;;;;;;;;;5029186;28;20203;-67
2022/01/23 08:16:38;;;;;;;1999.90;999.90;;;;;;;;;;5032625;28;20353;-70
2022/01/23 08:19:23;;;;;;;1999.90;999.90;;;;;;;;;;5029937;28;20706;-70
2022/01/23 08:22:08;;;;;;;1999.90;999.90;;;;;;;;;;5032569;28;20251;-69
2022/01/23 08:24:55;;;;;;;1999.90;999.90;;;;;;;;;;5028558;28;20220;-68
2022/01/23 08:27:40;;;;;;;1999.90;999.90;;;;;;;;;;5026553;28;20237;-70
2022/01/23 08:30:25;;;;;;;1999.90;999.90;;;;;;;;;;5032426;28;20204;-70
2022/01/23 08:33:10;;;;;;;1999.90;999.90;;;;;;;;;;5032538;28;20418;-70
2022/01/23 08:35:57;;;;;;;1999.90;999.90;;;;;;;;;;5012880;28;20569;-69
2022/01/23 08:38:43;;;;;;;1999.90;999.90;;;;;;;;;;5027542;28;20869;-69
2022/01/23 08:44:43;;;;;;;1999.90;999.90;;;;;;;;;;4962018;28;20213;-71
2022/01/23 08:47:28;;;;;;;1999.90;999.90;;;;;;;;;;5029576;28;20223;-70
2022/01/23 08:50:13;;;;;;;1999.90;999.90;;;;;;;;;;5023795;28;20845;-70
2022/01/23 08:52:58;;;;;;;1999.90;999.90;;;;;;;;;;5032235;28;20235;-70
2022/01/23 08:55:42;;;;;;;1999.90;999.90;;;;;;;;;;5032056;28;20580;-70
2022/01/23 08:58:29;;;;;;;1999.90;999.90;;;;;;;;;;5031746;28;20661;-70
2022/01/23 09:01:14;;;;;;;1999.90;999.90;;;;;;;;;;5032028;28;20205;-69
2022/01/23 09:03:59;;;;;;;1999.90;999.90;;;;;;;;;;5032260;28;20247;-70
2022/01/23 09:06:45;;;;;;;1999.90;999.90;;;;;;;;;;5032823;28;20567;-70
2022/01/23 09:09:32;;;;;;;1999.90;999.90;;;;;;;;;;5051753;28;20216;-69
2022/01/23 09:12:42;;;;;;;1999.90;999.90;;;;;;;;;;5052048;28;20208;-71
2022/01/23 09:15:30;;;;;;;1999.90;999.90;;;;;;;;;;5052005;28;20221;-69
2022/01/23 09:18:15;;;;;;;1999.90;999.90;;;;;;;;;;5051534;28;20216;-70
2022/01/23 09:21:00;;;;;;;1999.90;999.90;;;;;;;;;;5051713;28;20630;-70
2022/01/23 09:23:45;;;;;;;1999.90;999.90;;;;;;;;;;5051624;28;20216;-69
2022/01/23 09:26:30;;;;;;;1999.90;999.90;;;;;;;;;;5044077;28;20239;-69
2022/01/23 09:29:17;;;;;;;1999.90;999.90;;;;;;;;;;5037131;28;20211;-71
2022/01/23 09:32:05;;;;;;;1999.90;999.90;;;;;;;;;;5044146;28;20212;-68
2022/01/23 09:34:51;;;;;;;1999.90;999.90;;;;;;;;;;5018638;28;20211;-71
2022/01/23 09:37:36;;;;;;;1999.90;999.90;;;;;;;;;;5012153;28;20235;-70
2022/01/23 09:40:21;;;;;;;1999.90;999.90;;;;;;;;;;5035568;28;20212;-71
2022/01/23 09:43:07;;;;;;;1999.90;999.90;;;;;;;;;;5036825;28;20213;-69
2022/01/23 09:45:53;;;;;;;1999.90;999.90;;;;;;;;;;5043603;28;20294;-70
2022/01/23 09:48:43;;;;;;;1999.90;999.90;;;;;;;;;;5026452;28;20225;-69
2022/01/23 09:51:29;;;;;;;1999.90;999.90;;;;;;;;;;5026629;28;20715;-69
2022/01/23 09:54:16;;;;;;;1999.90;999.90;;;;;;;;;;5025741;28;20573;-70
2022/01/23 09:57:02;;;;;;;1999.90;999.90;;;;;;;;;;5025542;28;20592;-69
2022/01/23 09:59:47;;;;;;;1999.90;999.90;;;;;;;;;;5034374;28;20232;-69
2022/01/23 10:02:33;;;;;;;1999.90;999.90;;;;;;;;;;5031024;28;20427;-70
2022/01/23 10:05:19;;;;;;;1999.90;999.90;;;;;;;;;;5037082;28;20219;-70
2022/01/23 10:08:06;;;;;;;1999.90;999.90;;;;;;;;;;5027115;28;20236;-71
2022/01/23 10:10:53;;;;;;;1999.90;999.90;;;;;;;;;;5029029;28;20233;-70
2022/01/23 10:13:40;;;;;;;1999.90;999.90;;;;;;;;;;5032782;28;20296;-70
2022/01/23 10:16:25;;;;;;;1999.90;999.90;;;;;;;;;;5033282;28;20205;-70
2022/01/23 10:19:11;;;;;;;1999.90;999.90;;;;;;;;;;5034730;28;20205;-71
2022/01/23 10:21:59;;;;;;;1999.90;999.90;;;;;;;;;;5033799;28;20292;-70
2022/01/23 10:24:44;;;;;;;1999.90;999.90;;;;;;;;;;5032006;28;20341;-70
2022/01/23 10:27:40;;;;;;;1999.90;999.90;;;;;;;;;;5026643;28;20224;-69
2022/01/23 10:30:26;;;;;;;1999.90;999.90;;;;;;;;;;5032489;28;20924;-69
2022/01/23 10:33:15;;;;;;;1999.90;999.90;;;;;;;;;;5034877;28;20649;-69
2022/01/23 10:36:02;;;;;;;1999.90;999.90;;;;;;;;;;5014640;28;20213;-69
2022/01/23 10:38:54;;;;;;;1999.90;999.90;;;;;;;;;;5013467;28;20685;-70
2022/01/23 10:41:49;;;;;;;1999.90;999.90;;;;;;;;;;5009645;28;20270;-69
2022/01/23 10:47:49;;;;;;;1999.90;999.90;;;;;;;;;;5014539;28;20262;-68
2022/01/23 10:50:34;;;;;;;1999.90;999.90;;;;;;;;;;5007033;28;20211;-69
2022/01/23 10:53:19;;;;;;;1999.90;999.90;;;;;;;;;;5012702;28;20611;-70
2022/01/23 10:56:07;;;;;;;1999.90;999.90;;;;;;;;;;5012458;28;20210;-69
2022/01/23 10:59:03;;;;;;;1999.90;999.90;;;;;;;;;;5012185;28;20295;-70
2022/01/23 11:01:59;;;;;;;1999.90;999.90;;;;;;;;;;5011485;28;20195;-69
2022/01/23 11:04:55;;;;;;;1999.90;999.90;;;;;;;;;;5012735;28;20228;-69
2022/01/23 11:07:41;;;;;;;1999.90;999.90;;;;;;;;;;5010596;28;20343;-69
2022/01/23 11:10:27;;;;;;;1999.90;999.90;;;;;;;;;;5011704;28;20214;-69
2022/01/23 11:19:35;;;;;;;1999.90;999.90;;;;;;;;;;5009982;28;20265;-68
2022/01/23 11:22:21;;;;;;;1999.90;999.90;;;;;;;;;;5011131;28;20195;-69
2022/01/23 11:25:09;;;;;;;1999.90;999.90;;;;;;;;;;5012144;28;20752;-69
2022/01/23 11:28:01;;;;;;;1999.90;999.90;;;;;;;;;;5011535;28;20427;-69
2022/01/23 11:30:48;;;;;;;1999.90;999.90;;;;;;;;;;5012042;28;20206;-69
2022/01/23 11:33:33;;;;;;;1999.90;999.90;;;;;;;;;;5011812;28;20301;-69
2022/01/23 11:36:21;;;;;;;1999.90;999.90;;;;;;;;;;5010533;28;20330;-70
2022/01/23 11:39:12;;;;;;;1999.90;999.90;;;;;;;;;;5010057;28;20271;-69
2022/01/23 11:54:36;;;;;;;1999.90;999.90;;;;;;;;;;5012342;28;20287;-68
2022/01/23 11:57:41;;;;;;;1999.90;999.90;;;;;;;;;;5008159;28;20431;-70
2022/01/23 12:00:27;;;;;;;1999.90;999.90;;;;;;;;;;5007319;28;20424;-69
2022/01/23 12:03:14;;;;;;;1999.90;999.90;;;;;;;;;;5013306;28;20214;-69
2022/01/23 12:06:13;;;;;;;1999.90;999.90;;;;;;;;;;5010901;28;20210;-69
2022/01/23 12:09:03;;;;;;;1999.90;999.90;;;;;;;;;;5010708;28;20246;-70
2022/01/23 12:12:03;;;;;;;1999.90;999.90;;;;;;;;;;5006219;28;20202;-69
2022/01/23 12:17:52;;;;;;;1999.90;999.90;;;;;;;;;;5009922;28;20218;-69
2022/01/23 12:20:37;;;;;;;1999.90;999.90;;;;;;;;;;5013442;28;20690;-70
2022/01/23 12:23:23;;;;;;;1999.90;999.90;;;;;;;;;;5003395;28;20644;-69
2022/01/23 12:26:11;;;;;;;1999.90;999.90;;;;;;;;;;5012751;28;20210;-69
2022/01/23 12:28:56;;;;;;;1999.90;999.90;;;;;;;;;;5008743;28;20218;-70
2022/01/23 12:31:41;;;;;;;1999.90;999.90;;;;;;;;;;5011363;28;20764;-69
2022/01/23 12:34:42;;;;;;;1999.90;999.90;;;;;;;;;;5004710;28;20265;-70
2022/01/23 12:37:47;;;;;;;1999.90;999.90;;;;;;;;;;5005803;28;20637;-70
2022/01/23 12:40:35;;;;;;;1999.90;999.90;;;;;;;;;;5006799;28;20198;-69
2022/01/23 12:43:21;;;;;;;1999.90;999.90;;;;;;;;;;5010000;28;20254;-71
2022/01/23 12:46:08;;;;;;;1999.90;999.90;;;;;;;;;;5005989;28;20210;-68
2022/01/23 12:48:53;;;;;;;1999.90;999.90;;;;;;;;;;4992623;28;20227;-67
2022/01/23 12:51:41;;;;;;;1999.90;999.90;;;;;;;;;;4992830;28;20263;-68
2022/01/23 12:54:31;;;;;;;1999.90;999.90;;;;;;;;;;4992682;28;20557;-69
2022/01/23 12:57:18;;;;;;;1999.90;999.90;;;;;;;;;;5005504;28;20265;-70
2022/01/23 13:00:06;;;;;;;1999.90;999.90;;;;;;;;;;5012166;28;20218;-68
2022/01/23 13:02:53;;;;;;;1999.90;999.90;;;;;;;;;;5010511;28;20210;-70
2022/01/23 13:05:38;;;;;;;1999.90;999.90;;;;;;;;;;5012159;28;20207;-70
2022/01/23 13:08:27;;;;;;;1999.90;999.90;;;;;;;;;;5009899;28;20233;-70
2022/01/23 13:11:50;;;;;;;1999.90;999.90;;;;;;;;;;5010750;28;20230;-70
2022/01/23 13:14:38;;;;;;;1999.90;999.90;;;;;;;;;;5006905;28;20610;-71
2022/01/23 13:17:40;;;;;;;1999.90;999.90;;;;;;;;;;5003188;28;20246;-69
2022/01/23 13:27:23;;;;;;;1999.90;999.90;;;;;;;;;;4948223;28;20278;-70
2022/01/23 13:30:15;;;;;;;1999.90;999.90;;;;;;;;;;5001732;28;20742;-68
2022/01/23 13:33:03;;;;;;;1999.90;999.90;;;;;;;;;;5011894;28;20205;-71
2022/01/23 13:35:51;;;;;;;1999.90;999.90;;;;;;;;;;5015661;28;20199;-70
2022/01/23 13:38:38;;;;;;;1999.90;999.90;;;;;;;;;;5015881;28;20622;-70
2022/01/23 13:41:28;;;;;;;1999.90;999.90;;;;;;;;;;5015907;28;20333;-70
2022/01/23 13:53:38;;;;;;;1999.90;999.90;;;;;;;;;;5009117;28;20689;-70
2022/01/23 13:59:48;;;;;;;1999.90;999.90;;;;;;;;;;4935467;29;20212;-70
2022/01/23 14:02:36;;;;;;;1999.90;999.90;;;;;;;;;;4935926;29;20205;-70
2022/01/23 14:05:22;;;;;;;1999.90;999.90;;;;;;;;;;4988037;28;20214;-67
2022/01/23 14:08:07;;;;;;;1999.90;999.90;;;;;;;;;;4995511;28;20254;-71
2022/01/23 14:10:54;;;;;;;1999.90;999.90;;;;;;;;;;4995533;28;20703;-69
2022/01/23 14:13:39;;;;;;;1999.90;999.90;;;;;;;;;;4996222;28;20708;-70
2022/01/23 14:16:26;;;;;;;1999.90;999.90;;;;;;;;;;5010279;28;20227;-70
2022/01/23 14:19:17;;;;;;;1999.90;999.90;;;;;;;;;;5015152;28;20211;-70
2022/01/23 14:22:02;;;;;;;1999.90;999.90;;;;;;;;;;5015310;28;20300;-70
2022/01/23 14:24:47;;;;;;;1999.90;999.90;;;;;;;;;;5014197;28;20234;-70
2022/01/23 14:27:31;;;;;;;1999.90;999.90;;;;;;;;;;5015271;28;20238;-70
2022/01/23 14:30:20;;;;;;;1999.90;999.90;;;;;;;;;;5012753;28;20702;-69
2022/01/23 14:33:11;;;;;;;1999.90;999.90;;;;;;;;;;5015247;28;20245;-68
2022/01/23 14:35:58;;;;;;;1999.90;999.90;;;;;;;;;;5014917;28;20701;-69
2022/01/23 14:38:53;;;;;;;1999.90;999.90;;;;;;;;;;5014783;28;20230;-70
2022/01/23 14:41:40;;;;;;;1999.90;999.90;;;;;;;;;;5009064;28;20221;-69
2022/01/23 14:44:27;;;;;;;1999.90;999.90;;;;;;;;;;5014842;28;20227;-69
2022/01/23 14:47:12;;;;;;;1999.90;999.90;;;;;;;;;;5002631;28;20229;-69
2022/01/23 14:49:59;;;;;;;1999.90;999.90;;;;;;;;;;5003490;28;20709;-69
2022/01/23 14:52:48;;;;;;;1999.90;999.90;;;;;;;;;;5009143;28;20214;-69
2022/01/23 14:55:33;;;;;;;1999.90;999.90;;;;;;;;;;5013157;28;20249;-71
2022/01/23 14:58:20;;;;;;;1999.90;999.90;;;;;;;;;;5007813;28;20424;-70
2022/01/23 15:01:07;;;;;;;1999.90;999.90;;;;;;;;;;5012852;28;20237;-71
2022/01/23 15:03:52;;;;;;;1999.90;999.90;;;;;;;;;;5009029;28;20219;-70
2022/01/23 15:06:42;;;;;;;1999.90;999.90;;;;;;;;;;5013359;28;20366;-70
2022/01/23 15:09:28;;;;;;;1999.90;999.90;;;;;;;;;;5008220;28;20259;-70
2022/01/23 15:12:13;;;;;;;1999.90;999.90;;;;;;;;;;5009069;28;20205;-71
2022/01/23 15:14:58;;;;;;;1999.90;999.90;;;;;;;;;;5011904;28;20306;-69
2022/01/23 15:17:43;;;;;;;1999.90;999.90;;;;;;;;;;5007192;28;20228;-70
2022/01/23 15:20:30;;;;;;;1999.90;999.90;;;;;;;;;;5009711;28;20342;-69
2022/01/23 15:23:15;;;;;;;1999.90;999.90;;;;;;;;;;5010294;28;20442;-69
2022/01/23 15:26:02;;;;;;;1999.90;999.90;;;;;;;;;;5010212;28;20281;-71
2022/01/23 15:28:47;;;;;;;1999.90;999.90;;;;;;;;;;5011388;28;20721;-69
2022/01/23 15:31:32;;;;;;;1999.90;999.90;;;;;;;;;;5011634;28;20357;-70
2022/01/23 15:34:17;;;;;;;1999.90;999.90;;;;;;;;;;5010744;28;20218;-70
2022/01/23 15:37:02;;;;;;;1999.90;999.90;;;;;;;;;;5010146;28;20238;-69
2022/01/23 15:39:47;;;;;;;1999.90;999.90;;;;;;;;;;5010639;28;20207;-69
2022/01/23 15:42:33;;;;;;;1999.90;999.90;;;;;;;;;;5009307;28;20289;-69
2022/01/23 15:45:18;;;;;;;1999.90;999.90;;;;;;;;;;5008793;28;20211;-69
2022/01/23 15:48:04;;;;;;;1999.90;999.90;;;;;;;;;;5006086;28;20431;-69
2022/01/23 15:50:49;;;;;;;1999.90;999.90;;;;;;;;;;5011148;28;20205;-69
2022/01/23 15:53:34;;;;;;;1999.90;999.90;;;;;;;;;;5008570;28;20249;-69
2022/01/23 15:56:19;;;;;;;1999.90;999.90;;;;;;;;;;5007065;28;20218;-70
2022/01/23 15:59:05;;;;;;;1999.90;999.90;;;;;;;;;;5009094;28;20218;-70
2022/01/23 16:01:50;;;;;;;1999.90;999.90;;;;;;;;;;5006301;28;20206;-69
2022/01/23 16:04:37;;;;;;;1999.90;999.90;;;;;;;;;;5009980;28;20213;-70
2022/01/23 16:07:22;;;;;;;1999.90;999.90;;;;;;;;;;5009386;28;20238;-68
2022/01/23 16:10:07;;;;;;;1999.90;999.90;;;;;;;;;;5010761;28;20230;-69
2022/01/23 16:12:52;;;;;;;1999.90;999.90;;;;;;;;;;5010615;28;20213;-69
2022/01/23 16:15:39;;;;;;;1999.90;999.90;;;;;;;;;;5010619;28;20491;-70
2022/01/23 16:18:24;;;;;;;1999.90;999.90;;;;;;;;;;5010683;28;20229;-70
2022/01/23 16:21:09;;;;;;;1999.90;999.90;;;;;;;;;;5010325;28;20728;-70
2022/01/23 16:23:55;;;;;;;1999.90;999.90;;;;;;;;;;5009964;28;20209;-70
2022/01/23 16:26:40;;;;;;;1999.90;999.90;;;;;;;;;;5006725;28;20242;-70
2022/01/23 16:29:26;;;;;;;1999.90;999.90;;;;;;;;;;5010423;28;20305;-69
2022/01/23 16:32:12;;;;;;;1999.90;999.90;;;;;;;;;;5010675;28;20704;-70
2022/01/23 16:34:57;;;;;;;1999.90;999.90;;;;;;;;;;5008321;28;20202;-70
2022/01/23 16:37:42;;;;;;;1999.90;999.90;;;;;;;;;;5010563;28;20292;-71
2022/01/23 16:40:27;;;;;;;1999.90;999.90;;;;;;;;;;5010540;28;20219;-70
2022/01/23 16:43:13;;;;;;;1999.90;999.90;;;;;;;;;;5010286;28;20264;-70
2022/01/23 16:45:58;;;;;;;1999.90;999.90;;;;;;;;;;5009208;28;20210;-70
2022/01/23 16:48:45;;;;;;;1999.90;999.90;;;;;;;;;;5009756;28;20212;-69
2022/01/23 16:51:30;;;;;;;1999.90;999.90;;;;;;;;;;5010132;28;20205;-69
2022/01/23 16:54:16;;;;;;;1999.90;999.90;;;;;;;;;;5006980;28;20217;-71
2022/01/23 16:57:01;;;;;;;1999.90;999.90;;;;;;;;;;5007184;28;20747;-70
2022/01/23 16:59:46;;;;;;;1999.90;999.90;;;;;;;;;;5009923;28;20689;-68
2022/01/23 17:02:31;;;;;;;1999.90;999.90;;;;;;;;;;5010269;28;20221;-68
2022/01/23 17:05:18;;;;;;;1999.90;999.90;;;;;;;;;;5009726;28;20225;-71
2022/01/23 17:08:03;;;;;;;1999.90;999.90;;;;;;;;;;5006973;28;20242;-69
2022/01/23 17:10:50;;;;;;;1999.90;999.90;;;;;;;;;;5008628;28;20734;-70
2022/01/23 17:13:35;;;;;;;1999.90;999.90;;;;;;;;;;5009203;28;20404;-70
2022/01/23 17:16:20;;;;;;;1999.90;999.90;;;;;;;;;;5008533;28;20246;-71
2022/01/23 17:19:05;;;;;;;1999.90;999.90;;;;;;;;;;5009752;28;20665;-70
2022/01/23 17:21:51;;;;;;;1999.90;999.90;;;;;;;;;;5009637;28;20751;-70
2022/01/23 17:24:37;;;;;;;1999.90;999.90;;;;;;;;;;5009630;28;20691;-70
2022/01/23 17:27:23;;;;;;;1999.90;999.90;;;;;;;;;;5006172;28;20237;-71
2022/01/23 17:30:08;;;;;;;1999.90;999.90;;;;;;;;;;5009934;28;20233;-71
2022/01/23 17:32:54;;;;;;;1999.90;999.90;;;;;;;;;;5009952;28;20210;-68
2022/01/23 17:35:39;;;;;;;1999.90;999.90;;;;;;;;;;5010330;28;20225;-70
2022/01/23 17:38:25;;;;;;;1999.90;999.90;;;;;;;;;;5009812;28;20302;-69
2022/01/23 17:41:12;;;;;;;1999.90;999.90;;;;;;;;;;5005815;28;20434;-69
2022/01/23 17:43:56;;;;;;;1999.90;999.90;;;;;;;;;;5009858;28;21133;-70
2022/01/23 17:46:42;;;;;;;1999.90;999.90;;;;;;;;;;5006231;28;20709;-70
2022/01/23 17:49:39;;;;;;;1999.90;999.90;;;;;;;;;;5004820;28;20222;-70
2022/01/23 17:52:24;;;;;;;1999.90;999.90;;;;;;;;;;5009768;28;20341;-69
2022/01/23 17:55:11;;;;;;;1999.90;999.90;;;;;;;;;;5010071;28;20233;-71
2022/01/23 17:57:56;;;;;;;1999.90;999.90;;;;;;;;;;5007510;28;20226;-68
2022/01/23 18:00:42;;;;;;;1999.90;999.90;;;;;;;;;;5006182;28;20206;-69
2022/01/23 18:03:28;;;;;;;1999.90;999.90;;;;;;;;;;5009536;28;20334;-70
2022/01/23 18:06:21;;;;;;;1999.90;999.90;;;;;;;;;;5009763;28;20293;-70
2022/01/23 18:09:08;;;;;;;1999.90;999.90;;;;;;;;;;5007413;28;20209;-70
2022/01/23 18:11:54;;;;;;;1999.90;999.90;;;;;;;;;;5004933;28;20207;-68
2022/01/23 18:14:46;;;;;;;1999.90;999.90;;;;;;;;;;5006601;28;20221;-70
2022/01/23 18:17:31;;;;;;;1999.90;999.90;;;;;;;;;;5008368;28;20238;-69
2022/01/23 18:20:16;;;;;;;1999.90;999.90;;;;;;;;;;5008206;28;20206;-70